Stx Pioneer — 3EBI9 — position and weather

sailwx.info

Track history (hours):
 
Tides and Currents Weather Stations Pressure Air Temp Water Temp Dewpoint Dewpoint Depression Visibility Wind Speed Wind Dir Waves Ship Positions

Stx Pioneer

Last reported at 2017-Sep-16 21:50 UTC. Time now 2017-Sep-22 02:39 UTC.
Position N 05°15' E 000°26'.

Length 147 m; draft 6.5 m.

Type: Cargo ship. MMSI: 356609000.

Date/timePositionNaut miles runAvg speedWind from/ knotsBaromVisibWave heightAir tempDewpointWater temp
2017-Sep-16 21:50N 05°15' E 000°26'411.7
2017-Sep-16 21:30N 05°16' E 000°23'611.2
2017-Sep-16 21:00N 05°20' E 000°19'611.2
2017-Sep-16 20:30N 05°24' E 000°15'611.2
2017-Sep-16 20:00N 05°29' E 000°11'511.2
2017-Sep-16 19:30N 05°33' E 000°08'611.7
2017-Sep-16 19:00N 05°37' E 000°03'3 5.5
2017-Sep-16 18:28N 05°38' E 000°00'0 0.0
2017-Sep-16 17:58N 05°38' E 000°00'0 0.0
2017-Sep-16 17:28N 05°38' E 000°00'0 0.0
2017-Sep-16 16:58N 05°38' E 000°00'0 0.0
2017-Sep-16 16:28N 05°38' E 000°00'0 0.0
2017-Sep-16 15:58N 05°38' E 000°00'0 0.0
2017-Sep-16 15:28N 05°38' E 000°00'0 0.0
2017-Sep-16 14:58N 05°38' E 000°00'0 0.0
2017-Sep-16 14:28N 05°38' E 000°00'0 0.0
2017-Sep-16 13:58N 05°38' E 000°00'0 0.0
2017-Sep-16 13:28N 05°38' E 000°00'0 0.0
2017-Sep-16 12:58N 05°38' E 000°00'0 0.0
2017-Sep-16 12:28N 05°38' E 000°00'0 0.0
2017-Sep-16 11:55N 05°38' E 000°00'0 0.0
2017-Sep-16 11:28N 05°38' E 000°00'0 0.0
2017-Sep-16 10:58N 05°38' E 000°00'0 0.0
2017-Sep-16 10:28N 05°38' E 000°00'0 0.0
2017-Sep-16 09:58N 05°38' E 000°00'0 0.0
2017-Sep-16 09:28N 05°38' E 000°00'0 0.0
2017-Sep-16 08:58N 05°38' E 000°00'0 0.0
2017-Sep-16 08:25N 05°38' E 000°00'0 0.0
2017-Sep-16 07:58N 05°38' E 000°00'0 0.0
2017-Sep-16 07:28N 05°38' E 000°00'0 0.0
2017-Sep-16 06:58N 05°38' E 000°00'0 0.0
2017-Sep-16 06:28N 05°38' E 000°00'0 0.0
2017-Sep-16 05:58N 05°38' E 000°00'0 0.0
2017-Sep-16 05:28N 05°38' E 000°00'0 0.0
2017-Sep-16 04:58N 05°38' E 000°00'0 0.0
2017-Sep-16 04:28N 05°38' E 000°00'0 0.0
2017-Sep-16 03:52N 05°38' E 000°00'0 0.0
2017-Sep-16 03:28N 05°38' E 000°00'0 0.0
2017-Sep-16 02:58N 05°38' E 000°00'0 0.0
2017-Sep-16 02:28N 05°38' E 000°00'0 0.0
2017-Sep-16 01:58N 05°38' E 000°00'0 0.0
2017-Sep-16 01:28N 05°38' E 000°00'0 0.0
2017-Sep-16 00:58N 05°38' E 000°00'0 0.0
2017-Sep-16 00:28N 05°38' E 000°00'0 0.0
2017-Sep-15 23:58N 05°38' E 000°00'0 0.0
2017-Sep-15 23:28N 05°38' E 000°00'0 0.0
2017-Sep-15 22:58N 05°38' E 000°00'0 0.0
2017-Sep-15 22:28N 05°38' E 000°00'0 0.0
2017-Sep-15 21:58N 05°38' E 000°00'0 0.0
2017-Sep-15 21:28N 05°38' E 000°00'0 0.0
2017-Sep-15 20:58N 05°38' E 000°00'0 0.0
2017-Sep-15 20:28N 05°38' E 000°00'0 0.0
2017-Sep-15 19:58N 05°38' E 000°00'0 0.0
2017-Sep-15 19:28N 05°38' E 000°00'0 0.0
2017-Sep-15 18:58N 05°38' E 000°00'0 0.0
2017-Sep-15 18:28N 05°38' E 000°00'0 0.0
2017-Sep-15 17:58N 05°38' E 000°00'0 0.0
2017-Sep-15 17:28N 05°38' E 000°00'0 0.0
2017-Sep-15 16:58N 05°38' E 000°00'0 0.0
2017-Sep-15 16:28N 05°38' E 000°00'0 0.1
2017-Sep-15 15:58N 05°38' E 000°00'0 0.1
2017-Sep-15 15:28N 05°38' E 000°00'0 0.0
2017-Sep-15 14:58N 05°38' E 000°00'0 0.0
2017-Sep-15 14:28N 05°38' E 000°00'0 0.0
2017-Sep-15 13:58N 05°38' E 000°00'0 0.0
2017-Sep-15 13:28N 05°38' E 000°00'0 0.0
2017-Sep-15 12:58N 05°38' E 000°00'0 0.0
2017-Sep-15 12:28N 05°38' E 000°00'0 0.0
2017-Sep-15 11:58N 05°38' E 000°00'0 0.0
2017-Sep-15 11:28N 05°38' E 000°00'0 0.0
2017-Sep-15 10:58N 05°38' E 000°00'0 0.0
2017-Sep-15 10:28N 05°38' E 000°00'0 0.0
2017-Sep-15 09:58N 05°38' E 000°00'0 0.5
2017-Sep-15 09:30N 05°38' E 000°01'1 2.8
2017-Sep-15 09:01N 05°38' E 000°02'3 6.7
2017-Sep-15 08:30N 05°34' E 000°03'612.3
2017-Sep-15 08:01N 05°28' E 000°02'816.6
2017-Sep-15 07:31N 05°20' E 000°02'37 2.9
2017-Sep-14 19:00N 05°03' E 000°35'1 2.3
2017-Sep-14 18:26N 05°02' E 000°34'3 1.7
2017-Sep-14 16:20N 04°60' E 000°32'2 1.7
2017-Sep-14 15:26N 04°58' E 000°31'2 1.6
2017-Sep-14 14:11N 04°57' E 000°29'0 1.6
2017-Sep-14 14:00N 04°57' E 000°29'25 1.6
2017-Sep-13 22:06N 04°38' E 000°13'0 1.7
2017-Sep-13 21:49N 04°38' E 000°12'1 1.7
2017-Sep-13 21:30N 04°37' E 000°12'1 1.8
2017-Sep-13 21:00N 04°36' E 000°12'1 1.7
2017-Sep-13 20:28N 04°36' E 000°11'1 1.7
2017-Sep-13 20:00N 04°35' E 000°11'1 1.7
2017-Sep-13 19:12N 04°34' E 000°10'0 1.8
2017-Sep-13 19:00N 04°33' E 000°10'1 1.9
2017-Sep-13 18:22N 04°32' E 000°09'  
2017-Sep-10 20:30N 04°26' E 000°09'49 9.6
2017-Sep-10 15:24N 05°14' E 000°06'615.4
2017-Sep-10 15:00N 05°20' E 000°06'1312.7
2017-Sep-10 14:00N 05°33' E 000°07'4 8.3
2017-Sep-10 13:30N 05°32' E 000°02'815.6
2017-Sep-10 13:00N 05°24' E 000°01'816.3
2017-Sep-10 12:30N 05°18' W 000°04'916.9
2017-Sep-10 11:58N 05°12' W 000°11'10216.3
2017-Sep-10 05:40N 04°21' W 001°40'317.1
2017-Sep-10 05:29N 04°21' W 001°43'816.9
2017-Sep-10 05:00N 04°20' W 001°51'916.7
2017-Sep-10 04:29N 04°20' W 001°60'816.8
2017-Sep-10 03:59N 04°19' W 002°08'816.8
2017-Sep-10 03:29N 04°19' W 002°17'917.0
2017-Sep-10 02:59N 04°19' W 002°25'817.3
2017-Sep-10 02:30N 04°18' W 002°33'917.2
2017-Sep-10 02:00N 04°19' W 002°42'917.2
2017-Sep-10 01:30N 04°20' W 002°51'917.3
2017-Sep-10 01:00N 04°22' W 002°59'917.5
2017-Sep-10 00:30N 04°25' W 003°07'  
Track history (hours):
 
Tides and Currents Weather Stations Pressure Air Temp Water Temp Dewpoint Dewpoint Depression Visibility Wind Speed Wind Dir Waves Ship Positions

Stx Pioneer

Last reported at 2017-Sep-16 21:50 UTC. Time now 2017-Sep-22 02:39 UTC.
Position N 05°15' E 000°26'.

Length 147 m; draft 6.5 m.

Type: Cargo ship. MMSI: 356609000.

Date/timePositionNaut miles runAvg speedWind from/ knotsBaromVisibWave heightAir tempDewpointWater temp
2017-Sep-16 21:50N 05°15' E 000°26'411.7
2017-Sep-16 21:30N 05°16' E 000°23'611.2
2017-Sep-16 21:00N 05°20' E 000°19'611.2
2017-Sep-16 20:30N 05°24' E 000°15'611.2
2017-Sep-16 20:00N 05°29' E 000°11'511.2
2017-Sep-16 19:30N 05°33' E 000°08'611.7
2017-Sep-16 19:00N 05°37' E 000°03'3 5.5
2017-Sep-16 18:28N 05°38' E 000°00'0 0.0
2017-Sep-16 17:58N 05°38' E 000°00'0 0.0
2017-Sep-16 17:28N 05°38' E 000°00'0 0.0
2017-Sep-16 16:58N 05°38' E 000°00'0 0.0
2017-Sep-16 16:28N 05°38' E 000°00'0 0.0
2017-Sep-16 15:58N 05°38' E 000°00'0 0.0
2017-Sep-16 15:28N 05°38' E 000°00'0 0.0
2017-Sep-16 14:58N 05°38' E 000°00'0 0.0
2017-Sep-16 14:28N 05°38' E 000°00'0 0.0
2017-Sep-16 13:58N 05°38' E 000°00'0 0.0
2017-Sep-16 13:28N 05°38' E 000°00'0 0.0
2017-Sep-16 12:58N 05°38' E 000°00'0 0.0
2017-Sep-16 12:28N 05°38' E 000°00'0 0.0
2017-Sep-16 11:55N 05°38' E 000°00'0 0.0
2017-Sep-16 11:28N 05°38' E 000°00'0 0.0
2017-Sep-16 10:58N 05°38' E 000°00'0 0.0
2017-Sep-16 10:28N 05°38' E 000°00'0 0.0
2017-Sep-16 09:58N 05°38' E 000°00'0 0.0
2017-Sep-16 09:28N 05°38' E 000°00'0 0.0
2017-Sep-16 08:58N 05°38' E 000°00'0 0.0
2017-Sep-16 08:25N 05°38' E 000°00'0 0.0
2017-Sep-16 07:58N 05°38' E 000°00'0 0.0
2017-Sep-16 07:28N 05°38' E 000°00'0 0.0
2017-Sep-16 06:58N 05°38' E 000°00'0 0.0
2017-Sep-16 06:28N 05°38' E 000°00'0 0.0
2017-Sep-16 05:58N 05°38' E 000°00'0 0.0
2017-Sep-16 05:28N 05°38' E 000°00'0 0.0
2017-Sep-16 04:58N 05°38' E 000°00'0 0.0
2017-Sep-16 04:28N 05°38' E 000°00'0 0.0
2017-Sep-16 03:52N 05°38' E 000°00'0 0.0
2017-Sep-16 03:28N 05°38' E 000°00'0 0.0
2017-Sep-16 02:58N 05°38' E 000°00'0 0.0
2017-Sep-16 02:28N 05°38' E 000°00'0 0.0
2017-Sep-16 01:58N 05°38' E 000°00'0 0.0
2017-Sep-16 01:28N 05°38' E 000°00'0 0.0
2017-Sep-16 00:58N 05°38' E 000°00'0 0.0
2017-Sep-16 00:28N 05°38' E 000°00'0 0.0
2017-Sep-15 23:58N 05°38' E 000°00'0 0.0
2017-Sep-15 23:28N 05°38' E 000°00'0 0.0
2017-Sep-15 22:58N 05°38' E 000°00'0 0.0
2017-Sep-15 22:28N 05°38' E 000°00'0 0.0
2017-Sep-15 21:58N 05°38' E 000°00'0 0.0
2017-Sep-15 21:28N 05°38' E 000°00'0 0.0
2017-Sep-15 20:58N 05°38' E 000°00'0 0.0
2017-Sep-15 20:28N 05°38' E 000°00'0 0.0
2017-Sep-15 19:58N 05°38' E 000°00'0 0.0
2017-Sep-15 19:28N 05°38' E 000°00'0 0.0
2017-Sep-15 18:58N 05°38' E 000°00'0 0.0
2017-Sep-15 18:28N 05°38' E 000°00'0 0.0
2017-Sep-15 17:58N 05°38' E 000°00'0 0.0
2017-Sep-15 17:28N 05°38' E 000°00'0 0.0
2017-Sep-15 16:58N 05°38' E 000°00'0 0.0
2017-Sep-15 16:28N 05°38' E 000°00'0 0.1
2017-Sep-15 15:58N 05°38' E 000°00'0 0.1
2017-Sep-15 15:28N 05°38' E 000°00'0 0.0
2017-Sep-15 14:58N 05°38' E 000°00'0 0.0
2017-Sep-15 14:28N 05°38' E 000°00'0 0.0
2017-Sep-15 13:58N 05°38' E 000°00'0 0.0
2017-Sep-15 13:28N 05°38' E 000°00'0 0.0
2017-Sep-15 12:58N 05°38' E 000°00'0 0.0
2017-Sep-15 12:28N 05°38' E 000°00'0 0.0
2017-Sep-15 11:58N 05°38' E 000°00'0 0.0
2017-Sep-15 11:28N 05°38' E 000°00'0 0.0
2017-Sep-15 10:58N 05°38' E 000°00'0 0.0
2017-Sep-15 10:28N 05°38' E 000°00'0 0.0
2017-Sep-15 09:58N 05°38' E 000°00'0 0.5
2017-Sep-15 09:30N 05°38' E 000°01'1 2.8
2017-Sep-15 09:01N 05°38' E 000°02'3 6.7
2017-Sep-15 08:30N 05°34' E 000°03'612.3
2017-Sep-15 08:01N 05°28' E 000°02'816.6
2017-Sep-15 07:31N 05°20' E 000°02'37 2.9
2017-Sep-14 19:00N 05°03' E 000°35'1 2.3
2017-Sep-14 18:26N 05°02' E 000°34'3 1.7
2017-Sep-14 16:20N 04°60' E 000°32'2 1.7
2017-Sep-14 15:26N 04°58' E 000°31'2 1.6
2017-Sep-14 14:11N 04°57' E 000°29'0 1.6
2017-Sep-14 14:00N 04°57' E 000°29'25 1.6
2017-Sep-13 22:06N 04°38' E 000°13'0 1.7
2017-Sep-13 21:49N 04°38' E 000°12'1 1.7
2017-Sep-13 21:30N 04°37' E 000°12'1 1.8
2017-Sep-13 21:00N 04°36' E 000°12'1 1.7
2017-Sep-13 20:28N 04°36' E 000°11'1 1.7
2017-Sep-13 20:00N 04°35' E 000°11'1 1.7
2017-Sep-13 19:12N 04°34' E 000°10'0 1.8
2017-Sep-13 19:00N 04°33' E 000°10'1 1.9
2017-Sep-13 18:22N 04°32' E 000°09'  
2017-Sep-10 20:30N 04°26' E 000°09'49 9.6
2017-Sep-10 15:24N 05°14' E 000°06'615.4
2017-Sep-10 15:00N 05°20' E 000°06'1312.7
2017-Sep-10 14:00N 05°33' E 000°07'4 8.3
2017-Sep-10 13:30N 05°32' E 000°02'815.6
2017-Sep-10 13:00N 05°24' E 000°01'816.3
2017-Sep-10 12:30N 05°18' W 000°04'916.9
2017-Sep-10 11:58N 05°12' W 000°11'10216.3
2017-Sep-10 05:40N 04°21' W 001°40'317.1
2017-Sep-10 05:29N 04°21' W 001°43'816.9
2017-Sep-10 05:00N 04°20' W 001°51'916.7
2017-Sep-10 04:29N 04°20' W 001°60'816.8
2017-Sep-10 03:59N 04°19' W 002°08'816.8
2017-Sep-10 03:29N 04°19' W 002°17'917.0
2017-Sep-10 02:59N 04°19' W 002°25'817.3
2017-Sep-10 02:30N 04°18' W 002°33'917.2
2017-Sep-10 02:00N 04°19' W 002°42'917.2
2017-Sep-10 01:30N 04°20' W 002°51'917.3
2017-Sep-10 01:00N 04°22' W 002°59'917.5
2017-Sep-10 00:30N 04°25' W 003°07'  

Dump ship's entire track history